Friday, May 25, 2018, 8:25 PM EDT
Back to Local

KBVY, Beverly Municipal Airport

Location: Danvers, MA, United States Lat: 42.583
Local Time: 8:25 PM EDT ( 0:25 GMT) Lon: -70.917
Time Zone: US/Eastern Elev: 108 ft

Show me the last for .
Show Decoded

2018-05-25 19:53 METAR KBVY 252353Z 24006KT 10SM SCT120 27/10 A2972 RMK AO2 SLP059 T02720100
                 10311 20272 53000 =
2018-05-25 18:53 METAR KBVY 252253Z 25007KT 10SM CLR 28/09 A2972 RMK AO2 SLP057 T02830089 =
2018-05-25 17:53 METAR KBVY 252153Z 25011KT 10SM CLR 30/08 A2971 RMK AO2 SLP056 T03000078 =
2018-05-25 16:53 METAR KBVY 252053Z 25019G26KT 10SM CLR 31/08 A2972 RMK AO2 PK WND 23026/2050
                 SLP058 T03060078 56020 =
2018-05-25 15:53 METAR KBVY 251953Z 25015G23KT 10SM CLR 30/09 A2973 RMK AO2 PK WND 23026/1934
                 SLP063 T03000089 =
2018-05-25 14:53 METAR KBVY 251853Z 24016G25KT 10SM CLR 31/09 A2976 RMK AO2 PK WND 22026/1826
                 SLP071 T03060094 =
2018-05-25 13:53 METAR KBVY 251753Z 24016G20KT 10SM CLR 31/09 A2978 RMK AO2 SLP078 T03060094
                 10306 20194 56026 =
2018-05-25 12:53 METAR KBVY 251653Z 26014G25KT 10SM CLR 30/09 A2980 RMK AO2 SLP086 T03000089 =
2018-05-25 11:53 METAR KBVY 251553Z 27018G28KT 10SM CLR 29/09 A2983 RMK AO2 PK WND 28028/1552
                 SLP094 T02890094 =
2018-05-25 10:53 METAR KBVY 251453Z 26012G24KT 10SM CLR 27/10 A2986 RMK AO2 SLP105 T02720100
                 58022 =
2018-05-25 09:53 METAR KBVY 251353Z 25013KT 10SM CLR 25/11 A2988 RMK AO2 SLP113 T02500106 =
2018-05-25 08:53 METAR KBVY 251253Z 26013G19KT 10SM CLR 22/10 A2990 RMK AO2 SLP120 T02220100 =
2018-05-25 07:53 METAR KBVY 251153Z 25010KT 10SM CLR 19/10 A2992 RMK AO2 SLP127 T01940100 10194
                 20106 58006 =
2018-05-25 06:53 METAR KBVY 251053Z 25008KT 10SM CLR 16/10 A2993 RMK AO2 SLP131 T01560100 =
2018-05-25 05:53 METAR KBVY 250953Z AUTO 25007KT 10SM CLR 14/09 A2994 RMK AO2 SLP133 T01390094 =
2018-05-25 04:53 METAR KBVY 250853Z AUTO 22006KT 10SM CLR 11/08 A2994 RMK AO2 SLP133 T01110083
                 56017 =
2018-05-25 03:53 METAR KBVY 250753Z AUTO 22005KT 10SM CLR 12/09 A2995 RMK AO2 SLP136 T01220089 =
2018-05-25 02:53 METAR KBVY 250653Z AUTO 22005KT 10SM CLR 12/09 A2997 RMK AO2 SLP144 T01220089 =
2018-05-25 01:53 METAR KBVY 250553Z AUTO 22006KT 10SM CLR 12/09 A2999 RMK AO2 SLP150 T01220089
                 10167 20122 58019 =
2018-05-25 00:53 METAR KBVY 250453Z AUTO 21009KT 10SM CLR 13/09 A3001 RMK AO2 SLP158 T01330089
                 401670083 =
2018-05-24 23:53 METAR KBVY 250353Z AUTO 22010KT 10SM CLR 13/09 A3003 RMK AO2 SLP164 T01330089 =
2018-05-24 22:53 METAR KBVY 250253Z AUTO 21008KT 10SM CLR 14/08 A3005 RMK AO2 SLP170 T01390083
                 50001 =
2018-05-24 21:53 METAR KBVY 250153Z AUTO 21009KT 10SM CLR 14/09 A3006 RMK AO2 SLP174 T01440089 =
2018-05-24 20:53 METAR KBVY 250053Z 19009KT 10SM CLR 16/09 A3007 RMK AO2 SLP177 T01560089 =

Support USWX by starting your Amazon purchase here.